Time;durP1;ratioP1;P1;durP2;ratioP2;P2;SDS_P1;SDS_P2;PMS_P1;PMS_P2;Temp;Humidity;BMP_temperature;BMP_pressure;BME280_temperature;BME280_humidity;BME280_pressure;Samples;Min_cycle;Max_cycle;Signal;HPM_P1;HPM_P2
2021/03/30 00:01:49;;;;;;;51.47;28.60;;;179.90;2099.20;;;;;;4995972;28;20037;-65
2021/03/30 00:04:15;;;;;;;48.42;27.83;;;179.90;2073.60;;;;;;4996406;28;20434;-65
2021/03/30 00:06:41;;;;;;;52.63;28.40;;;179.80;2099.20;;;;;;4995347;28;20050;-65
2021/03/30 00:09:09;;;;;;;45.53;27.65;;;179.80;2124.80;;;;;;4997015;28;20386;-65
2021/03/30 00:11:36;;;;;;;44.35;26.67;;;179.70;2124.80;;;;;;4997828;28;20026;-65
2021/03/30 00:14:02;;;;;;;48.30;27.42;;;179.70;2150.40;;;;;;4995011;28;20112;-66
2021/03/30 00:16:28;;;;;;;46.75;27.58;;;179.60;2150.40;;;;;;4995103;28;20030;-65
2021/03/30 00:18:54;;;;;;;51.53;29.00;;;179.60;2176.00;;;;;;4996737;28;20018;-66
2021/03/30 00:21:19;;;;;;;50.70;27.15;;;179.60;2176.00;;;;;;4997847;28;20030;-66
2021/03/30 00:23:51;;;;;;;47.05;28.55;;;179.60;2150.40;;;;;;5002316;28;20073;-67
2021/03/30 00:26:17;;;;;;;51.58;27.75;;;179.60;2150.40;;;;;;5000546;28;20053;-64
2021/03/30 00:28:43;;;;;;;46.72;28.20;;;179.50;2176.00;;;;;;4997580;28;20026;-65
2021/03/30 00:31:09;;;;;;;47.75;26.63;;;179.50;2176.00;;;;;;4996810;28;20034;-64
2021/03/30 00:33:34;;;;;;;51.92;27.30;;;179.50;2150.40;;;;;;4997475;28;20030;-64
2021/03/30 00:36:00;;;;;;;47.08;27.38;;;179.50;2201.60;;;;;;4995859;28;20022;-65
2021/03/30 00:38:26;;;;;;;48.95;28.60;;;179.50;2176.00;;;;;;4996010;28;20474;-64
2021/03/30 00:40:52;;;;;;;50.35;29.13;;;179.40;2176.00;;;;;;4995188;28;20268;-65
2021/03/30 00:43:19;;;;;;;48.05;27.52;;;179.50;2176.00;;;;;;4997406;28;20030;-65
2021/03/30 00:45:44;;;;;;;46.65;27.42;;;179.50;2150.40;;;;;;4998776;28;20109;-65
2021/03/30 00:48:23;;;;;;;49.45;28.65;;;179.50;2176.00;;;;;;4996537;28;20468;-65
2021/03/30 00:50:49;;;;;;;54.85;29.88;;;179.40;2176.00;;;;;;5007965;28;20427;-64
2021/03/30 00:53:15;;;;;;;51.08;29.95;;;179.40;2176.00;;;;;;4995445;28;20022;-65
2021/03/30 00:55:41;;;;;;;55.00;28.35;;;179.30;2201.60;;;;;;4995364;28;20109;-65
2021/03/30 00:58:08;;;;;;;53.60;28.15;;;179.20;2227.20;;;;;;5001845;28;20555;-64
2021/03/30 01:00:34;;;;;;;68.65;34.40;;;179.30;2227.20;;;;;;4998705;28;20077;-65
2021/03/30 01:02:59;;;;;;;86.60;42.72;;;179.20;2227.20;;;;;;5013686;28;20027;-65
2021/03/30 01:05:25;;;;;;;74.30;37.75;;;179.20;2227.20;;;;;;5013262;28;20033;-65
2021/03/30 01:08:08;;;;;;;78.88;36.83;;;154.50;2252.80;;;;;;5013194;28;20030;-66
2021/03/30 01:10:43;;;;;;;58.42;31.77;;;154.40;2252.80;;;;;;5012785;28;20018;-65
2021/03/30 01:13:42;;;;;;;67.72;35.00;;;154.40;2252.80;;;;;;5012860;28;20088;-65
2021/03/30 01:16:29;;;;;;;59.50;31.05;;;154.40;2252.80;;;;;;5012980;28;20018;-65
2021/03/30 01:19:29;;;;;;;44.85;24.02;;;154.40;2252.80;;;;;;5012898;28;20014;-66
2021/03/30 01:22:03;;;;;;;44.33;23.45;;;154.30;2252.80;;;;;;5013179;28;20543;-65
2021/03/30 01:24:36;;;;;;;42.58;24.38;;;154.10;2252.80;;;;;;5013079;28;20029;-65
2021/03/30 01:27:29;;;;;;;42.88;23.10;;;154.00;2252.80;;;;;;5013069;28;20033;-65
2021/03/30 01:29:55;;;;;;;34.08;20.25;;;154.00;2252.80;;;;;;5012099;28;20041;-65
2021/03/30 01:32:48;;;;;;;39.00;21.55;;;153.90;2252.80;;;;;;5011753;28;20034;-67
2021/03/30 01:35:16;;;;;;;40.72;22.13;;;153.90;2252.80;;;;;;5008068;28;20026;-68
2021/03/30 01:37:46;;;;;;;36.85;20.65;;;153.90;2252.80;;;;;;5012685;28;20025;-65
2021/03/30 01:40:15;;;;;;;40.90;20.95;;;153.90;2252.80;;;;;;5012074;28;20022;-65
2021/03/30 01:42:45;;;;;;;42.05;23.83;;;153.90;2252.80;;;;;;5012710;28;20153;-66
2021/03/30 01:45:14;;;;;;;50.33;27.87;;;153.90;2252.80;;;;;;5011273;28;20034;-67
2021/03/30 01:47:41;;;;;;;48.60;26.42;;;153.90;2252.80;;;;;;5012829;28;20030;-67
2021/03/30 01:50:07;;;;;;;46.85;25.35;;;153.90;2252.80;;;;;;5012223;28;20080;-66
2021/03/30 01:52:34;;;;;;;60.30;29.83;;;153.90;2252.80;;;;;;5012319;28;20037;-67
2021/03/30 01:55:01;;;;;;;74.78;35.28;;;154.00;2252.80;;;;;;5012720;28;20096;-67
2021/03/30 01:57:30;;;;;;;76.00;35.72;;;154.10;2252.80;;;;;;5012347;28;20530;-67
2021/03/30 01:59:58;;;;;;;71.65;33.90;;;154.10;2252.80;;;;;;5012367;28;20025;-67
2021/03/30 02:02:24;;;;;;;68.80;33.63;;;154.10;2252.80;;;;;;5012388;28;20022;-66
2021/03/30 02:04:51;;;;;;;54.25;28.48;;;154.10;2252.80;;;;;;5012188;28;20030;-67
2021/03/30 02:07:17;;;;;;;62.05;31.10;;;154.10;2252.80;;;;;;5012385;28;20041;-68
2021/03/30 02:09:48;;;;;;;76.88;35.60;;;154.10;2252.80;;;;;;5011707;28;20415;-66
2021/03/30 02:12:14;;;;;;;68.82;32.63;;;154.10;2252.80;;;;;;5012706;28;20387;-66
2021/03/30 02:14:41;;;;;;;46.00;25.60;;;154.00;2252.80;;;;;;5012410;28;20083;-67
2021/03/30 02:17:23;;;;;;;40.85;23.45;;;153.80;2252.80;;;;;;5012210;28;20058;-66
2021/03/30 02:19:51;;;;;;;37.63;20.90;;;153.70;2252.80;;;;;;5011732;28;20457;-63
2021/03/30 02:22:41;;;;;;;29.38;17.75;;;128.90;2252.80;;;;;;5012286;28;20037;-65
2021/03/30 02:25:08;;;;;;;33.67;18.67;;;128.70;2252.80;;;;;;5011944;28;20029;-65
2021/03/30 02:27:38;;;;;;;26.40;15.68;;;128.60;2252.80;;;;;;5012010;28;20256;-65
2021/03/30 02:30:09;;;;;;;29.17;14.98;;;128.50;2252.80;;;;;;5011222;28;20038;-65
2021/03/30 02:32:38;;;;;;;21.63;13.27;;;128.40;2252.80;;;;;;5011928;28;20034;-66
2021/03/30 02:35:06;;;;;;;22.48;13.27;;;128.30;2252.80;;;;;;5011686;28;20061;-65
2021/03/30 02:37:34;;;;;;;24.35;14.13;;;128.20;2252.80;;;;;;5011855;28;20029;-65
2021/03/30 02:40:01;;;;;;;26.58;14.52;;;128.10;2252.80;;;;;;5011246;28;20349;-64
2021/03/30 02:42:28;;;;;;;25.05;15.23;;;128.10;2252.80;;;;;;5011884;28;20148;-65
2021/03/30 02:44:54;;;;;;;26.85;15.15;;;128.10;2252.80;;;;;;5011634;28;20473;-65
2021/03/30 02:47:20;;;;;;;24.25;15.60;;;128.00;2252.80;;;;;;5011817;28;20048;-64
2021/03/30 02:49:46;;;;;;;24.58;15.05;;;103.30;2227.20;;;;;;5011335;28;20080;-66
2021/03/30 02:52:14;;;;;;;25.83;15.10;;;103.20;2227.20;;;;;;5010995;28;20549;-66
2021/03/30 02:54:41;;;;;;;23.42;13.68;;;103.20;2227.20;;;;;;5011678;28;20032;-67
2021/03/30 02:57:09;;;;;;;23.85;14.27;;;103.20;2227.20;;;;;;5011212;28;20439;-64
2021/03/30 02:59:35;;;;;;;22.73;13.13;;;103.20;2227.20;;;;;;5011339;28;20034;-64
2021/03/30 03:02:02;;;;;;;28.90;14.35;;;103.30;2227.20;;;;;;5011057;28;20065;-65
2021/03/30 03:04:29;;;;;;;26.17;14.27;;;103.30;2227.20;;;;;;5011578;28;20034;-65
2021/03/30 03:06:56;;;;;;;24.58;13.82;;;103.30;2227.20;;;;;;5011444;28;20021;-66
2021/03/30 03:09:23;;;;;;;26.90;14.02;;;103.30;2227.20;;;;;;5011117;28;20105;-66
2021/03/30 03:11:50;;;;;;;28.10;14.98;;;103.20;2227.20;;;;;;5011085;28;20109;-69
2021/03/30 03:14:19;;;;;;;25.80;15.00;;;103.20;2227.20;;;;;;5011591;28;20037;-65
2021/03/30 03:16:46;;;;;;;23.95;13.82;;;103.20;2227.20;;;;;;5011365;28;20021;-66
2021/03/30 03:19:15;;;;;;;27.77;15.55;;;103.20;2227.20;;;;;;5011479;28;20068;-65
2021/03/30 03:21:42;;;;;;;63.40;25.05;;;103.30;2227.20;;;;;;5011180;28;20045;-66
2021/03/30 03:24:12;;;;;;;47.50;21.70;;;103.20;2227.20;;;;;;5011131;28;20474;-64
2021/03/30 03:26:39;;;;;;;49.40;21.33;;;103.20;2227.20;;;;;;5011202;28;20030;-68
2021/03/30 03:29:14;;;;;;;43.20;20.75;;;103.30;2227.20;;;;;;5010887;28;20572;-63
2021/03/30 03:31:41;;;;;;;34.83;18.20;;;103.30;2227.20;;;;;;5009896;28;20052;-64
2021/03/30 03:34:06;;;;;;;39.90;20.17;;;103.20;2227.20;;;;;;5011201;28;20037;-68
2021/03/30 03:36:47;;;;;;;39.47;21.25;;;103.20;2227.20;;;;;;5011206;28;20022;-64
2021/03/30 03:39:18;;;;;;;43.28;24.20;;;103.20;2227.20;;;;;;5011179;28;20037;-64
2021/03/30 03:41:44;;;;;;;;;;;103.20;2227.20;;;;;;5011745;28;20029;-64
2021/03/30 03:44:10;;;;;;;40.50;21.98;;;103.20;2227.20;;;;;;5010990;28;19909;-64
2021/03/30 03:46:36;;;;;;;42.13;22.63;;;103.20;2227.20;;;;;;5010987;28;20029;-65
2021/03/30 03:49:04;;;;;;;44.03;23.48;;;103.20;2227.20;;;;;;5010675;28;20391;-64
2021/03/30 03:51:35;;;;;;;40.65;21.73;;;103.20;2227.20;;;;;;5010760;28;20449;-66
2021/03/30 03:54:04;;;;;;;39.38;21.55;;;103.30;2227.20;;;;;;5009756;28;20092;-63
2021/03/30 03:56:39;;;;;;;40.55;22.30;;;128.00;2252.80;;;;;;5010872;28;20029;-65
2021/03/30 03:59:09;;;;;;;37.08;21.83;;;128.00;2252.80;;;;;;5010729;28;20112;-66
2021/03/30 04:02:16;;;;;;;41.77;21.70;;;128.00;2252.80;;;;;;5010869;28;20026;-65
2021/03/30 04:04:52;;;;;;;38.42;21.52;;;128.00;2252.80;;;;;;5013859;28;20030;-64
2021/03/30 04:07:40;;;;;;;42.72;22.45;;;128.00;2252.80;;;;;;5014337;28;20109;-65
2021/03/30 04:10:08;;;;;;;41.58;23.38;;;128.00;2252.80;;;;;;5014290;28;20032;-65
2021/03/30 04:12:35;;;;;;;42.85;21.98;;;128.00;2252.80;;;;;;5014222;28;20038;-64
2021/03/30 04:15:02;;;;;;;40.75;22.40;;;128.00;2252.80;;;;;;5014320;28;20475;-66
2021/03/30 04:17:27;;;;;;;35.00;19.92;;;128.00;2252.80;;;;;;5014439;28;20030;-64
2021/03/30 04:19:53;;;;;;;33.15;19.33;;;128.00;2252.80;;;;;;5014209;28;20025;-65
2021/03/30 04:22:19;;;;;;;31.23;18.98;;;128.00;2252.80;;;;;;5014200;28;20034;-67
2021/03/30 04:24:45;;;;;;;135.18;51.70;;;128.00;2252.80;;;;;;5014071;28;20073;-65
2021/03/30 04:27:12;;;;;;;54.72;27.58;;;103.30;2227.20;;;;;;5014203;28;20026;-65
2021/03/30 04:29:42;;;;;;;47.45;25.60;;;103.30;2227.20;;;;;;5012544;28;20112;-65
2021/03/30 04:32:09;;;;;;;53.42;26.08;;;103.20;2227.20;;;;;;5014265;28;20411;-64
2021/03/30 04:34:35;;;;;;;55.22;26.35;;;103.20;2227.20;;;;;;5014063;28;20052;-65
2021/03/30 04:37:01;;;;;;;56.10;27.67;;;103.30;2227.20;;;;;;5013816;28;20061;-65
2021/03/30 04:39:27;;;;;;;51.85;24.83;;;128.00;2252.80;;;;;;5013548;28;20505;-65
2021/03/30 04:41:53;;;;;;;65.95;29.80;;;128.10;2252.80;;;;;;5013638;28;20022;-64
2021/03/30 04:44:18;;;;;;;92.18;37.08;;;128.30;2252.80;;;;;;5013997;28;20049;-64
2021/03/30 04:46:44;;;;;;;132.60;48.13;;;128.40;2252.80;;;;;;5013335;28;20061;-65
2021/03/30 04:49:10;;;;;;;121.20;45.45;;;128.40;2252.80;;;;;;5013529;28;20018;-64
2021/03/30 04:51:36;;;;;;;104.25;40.63;;;128.60;2252.80;;;;;;5013676;28;20109;-65
2021/03/30 04:54:02;;;;;;;105.78;40.58;;;128.90;2252.80;;;;;;5013405;28;20102;-65
2021/03/30 04:56:28;;;;;;;93.30;38.08;;;153.80;2252.80;;;;;;5013609;28;20505;-64
2021/03/30 04:58:53;;;;;;;73.20;32.10;;;154.10;2252.80;;;;;;5013603;28;20093;-66
2021/03/30 05:01:19;;;;;;;72.22;31.90;;;154.20;2252.80;;;;;;5013548;28;20120;-64
2021/03/30 05:03:45;;;;;;;71.20;32.60;;;154.40;2252.80;;;;;;5013251;28;20029;-64
2021/03/30 05:06:10;;;;;;;57.17;26.08;;;179.20;2252.80;;;;;;5013427;28;20034;-68
2021/03/30 05:08:37;;;;;;;36.17;18.55;;;179.40;2252.80;;;;;;5013216;28;20127;-64
2021/03/30 05:11:03;;;;;;;34.13;16.80;;;179.60;2227.20;;;;;;5013076;28;20034;-65
2021/03/30 05:13:29;;;;;;;32.88;17.63;;;179.90;2201.60;;;;;;5013098;28;20054;-66
2021/03/30 05:15:54;;;;;;;31.35;17.50;;;204.80;2150.40;;;;;;5012610;28;20018;-65
2021/03/30 05:18:20;;;;;;;32.42;17.08;;;205.10;2073.60;;;;;;5013066;28;20030;-65
2021/03/30 05:20:46;;;;;;;34.58;17.85;;;230.40;1996.80;;;;;;5012915;28;20506;-65
2021/03/30 05:23:11;;;;;;;32.00;18.00;;;230.80;1894.40;;;;;;5013305;28;20022;-65
2021/03/30 05:25:38;;;;;;;31.05;15.40;;;231.20;1868.80;;;;;;5013398;28;20430;-67
2021/03/30 05:28:05;;;;;;;28.38;14.60;;;231.30;1843.20;;;;;;5013097;28;20463;-66
2021/03/30 05:30:32;;;;;;;48.20;22.77;;;231.10;1843.20;;;;;;5012654;28;20029;-65
2021/03/30 05:32:58;;;;;;;53.33;26.13;;;231.10;1868.80;;;;;;5012820;28;20080;-65
2021/03/30 05:35:23;;;;;;;35.70;19.40;;;231.20;1868.80;;;;;;5013306;28;20050;-65
2021/03/30 05:37:49;;;;;;;33.67;18.30;;;231.10;1894.40;;;;;;5012532;28;20033;-66
2021/03/30 05:40:18;;;;;;;21.85;13.02;;;231.10;1894.40;;;;;;5012743;28;20022;-66
2021/03/30 05:42:45;;;;;;;20.70;12.70;;;231.20;1894.40;;;;;;5012760;28;20499;-65
2021/03/30 05:45:13;;;;;;;21.05;12.60;;;231.10;1894.40;;;;;;5012609;28;20117;-63
2021/03/30 05:47:39;;;;;;;21.13;12.90;;;231.10;1920.00;;;;;;5012861;28;20801;-66
2021/03/30 05:50:12;;;;;;;21.92;12.45;;;231.10;1920.00;;;;;;5012518;28;20053;-65
2021/03/30 05:55:24;;;;;;;25.17;15.45;;;230.90;1971.20;;;;;;5012651;28;20029;-64
2021/03/30 05:57:56;;;;;;;27.27;16.23;;;230.80;1971.20;;;;;;5012514;28;20022;-65
2021/03/30 06:00:24;;;;;;;25.98;16.42;;;230.60;1996.80;;;;;;5012177;28;20483;-66
2021/03/30 06:02:53;;;;;;;27.38;17.70;;;230.90;1971.20;;;;;;5012414;28;20022;-66
2021/03/30 06:05:19;;;;;;;26.45;16.67;;;230.80;1971.20;;;;;;5012434;28;20026;-66
2021/03/30 06:07:45;;;;;;;25.10;15.35;;;230.70;1996.80;;;;;;5012371;28;20068;-66
2021/03/30 06:10:14;;;;;;;23.02;16.02;;;230.90;1971.20;;;;;;5012146;28;20426;-67
2021/03/30 06:12:40;;;;;;;21.98;14.20;;;231.00;1971.20;;;;;;5011774;28;20085;-66
2021/03/30 06:15:08;;;;;;;22.98;13.95;;;231.20;1945.60;;;;;;5012572;28;20049;-66
2021/03/30 06:18:00;;;;;;;26.23;15.38;;;231.10;1945.60;;;;;;5012011;28;20076;-66
2021/03/30 06:20:37;;;;;;;25.30;15.00;;;231.20;1920.00;;;;;;5010914;28;20088;-66
2021/03/30 06:23:07;;;;;;;22.63;15.02;;;256.00;1920.00;;;;;;5012092;28;20025;-66
2021/03/30 06:25:46;;;;;;;22.00;14.50;;;256.10;1894.40;;;;;;5012075;28;20022;-67
2021/03/30 06:28:26;;;;;;;23.92;13.98;;;256.50;1843.20;;;;;;5006761;28;20034;-66
2021/03/30 06:31:01;;;;;;;;;;;256.80;1817.60;;;;;;5012094;28;20033;-66
2021/03/30 06:33:29;;;;;;;31.52;16.90;;;281.80;1817.60;;;;;;5011914;28;20289;-65
2021/03/30 06:36:18;;;;;;;29.55;15.18;;;256.90;1792.00;;;;;;5012007;28;20033;-66
2021/03/30 06:38:46;;;;;;;20.17;13.25;;;281.60;1817.60;;;;;;5011352;28;20097;-66
2021/03/30 06:41:28;;;;;;;22.48;13.60;;;282.40;1740.80;;;;;;5011598;28;20037;-66
2021/03/30 06:44:26;;;;;;;24.92;17.05;;;308.00;1689.60;;;;;;5011411;28;20053;-65
2021/03/30 06:47:01;;;;;;;26.42;15.38;;;333.10;1638.40;;;;;;5011673;28;20080;-66
2021/03/30 06:49:28;;;;;;;20.55;14.82;;;333.40;1612.80;;;;;;5011647;28;20042;-67
2021/03/30 06:51:55;;;;;;;21.80;14.57;;;333.70;1561.60;;;;;;5011351;28;20060;-70
2021/03/30 06:54:21;;;;;;;27.05;17.38;;;409.80;1433.60;;;;;;5011706;28;20401;-66
2021/03/30 06:56:57;;;;;;;22.55;15.63;;;461.60;1254.40;;;;;;5011505;28;20029;-66
2021/03/30 06:59:25;;;;;;;22.77;15.48;;;537.70;1152.00;;;;;;4998948;28;20029;-68
2021/03/30 07:01:56;;;;;;;23.80;17.67;;;537.90;1126.40;;;;;;5011208;28;20022;-71
2021/03/30 07:04:22;;;;;;;25.92;17.23;;;538.00;1100.80;;;;;;5005606;28;20025;-68
2021/03/30 07:06:53;;;;;;;24.88;17.10;;;563.80;1075.20;;;;;;5011567;28;20022;-69
2021/03/30 07:09:22;;;;;;;25.75;18.48;;;563.40;1075.20;;;;;;5011044;28;20026;-68
2021/03/30 07:11:48;;;;;;;27.95;19.33;;;538.00;1075.20;;;;;;5011434;28;20025;-68
2021/03/30 07:14:14;;;;;;;29.80;19.80;;;537.80;1100.80;;;;;;5010991;28;20380;-67
2021/03/30 07:17:00;;;;;;;29.70;20.42;;;512.90;1075.20;;;;;;5011053;28;20025;-69
2021/03/30 07:19:30;;;;;;;29.80;20.08;;;537.70;1075.20;;;;;;5010845;28;20020;-70
2021/03/30 07:22:02;;;;;;;;;;;512.60;1100.80;;;;;;5003974;28;20034;-67
2021/03/30 07:24:38;;;;;;;26.90;19.83;;;512.30;1075.20;;;;;;4992405;28;19906;-68
2021/03/30 07:27:06;;;;;;;29.58;20.48;;;512.20;1100.80;;;;;;4997624;28;20027;-69
2021/03/30 07:29:42;;;;;;;27.70;20.33;;;512.60;1075.20;;;;;;4993505;28;20034;-72
2021/03/30 07:32:23;;;;;;;29.75;20.42;;;512.30;1075.20;;;;;;5003428;28;20495;-71
2021/03/30 07:34:52;;;;;;;30.23;22.30;;;537.60;1100.80;;;;;;4996558;28;20440;-68
2021/03/30 07:37:39;;;;;;;41.28;27.90;;;538.10;1049.60;;;;;;5010219;28;20414;-68
2021/03/30 07:40:07;;;;;;;31.35;21.65;;;589.30;998.40;;;;;;5008682;28;20050;-71
2021/03/30 07:42:34;;;;;;;24.80;20.13;;;666.50;870.40;;;;;;4998227;28;20061;-68
2021/03/30 07:45:00;;;;;;;23.67;17.98;;;691.30;844.80;;;;;;4997453;28;20026;-66
2021/03/30 07:47:27;;;;;;;22.55;15.70;;;666.50;844.80;;;;;;4996608;28;20027;-69
2021/03/30 07:49:53;;;;;;;21.35;14.65;;;691.70;844.80;;;;;;4995236;28;20109;-66
2021/03/30 07:52:22;;;;;;;23.77;16.40;;;691.80;819.20;;;;;;4995922;28;20054;-66
2021/03/30 07:55:33;;;;;;;19.73;15.13;;;717.30;819.20;;;;;;4997794;28;20093;-67
2021/03/30 07:58:07;;;;;;;;;;;820.10;742.40;;;;;;4996498;28;20093;-68
2021/03/30 08:00:33;;;;;;;17.08;12.10;;;896.50;691.20;;;;;;4997843;28;19905;-67
2021/03/30 08:03:23;;;;;;;16.52;12.75;;;845.10;742.40;;;;;;4996179;28;20018;-66
2021/03/30 08:06:26;;;;;;;17.77;12.98;;;794.10;793.60;;;;;;4998209;28;20058;-66
2021/03/30 08:09:00;;;;;;;18.55;13.10;;;793.90;793.60;;;;;;4997495;28;20034;-74
2021/03/30 08:11:38;;;;;;;15.93;12.80;;;742.90;819.20;;;;;;5006213;28;20431;-66
2021/03/30 08:14:06;;;;;;;16.95;11.20;;;742.50;793.60;;;;;;4997165;28;20508;-71
2021/03/30 08:16:37;;;;;;;15.95;10.60;;;742.40;793.60;;;;;;5002895;28;20534;-70
2021/03/30 08:19:08;;;;;;;17.63;12.82;;;716.80;793.60;;;;;;5014160;28;20029;-66
2021/03/30 08:22:03;;;;;;;16.02;12.23;;;691.90;793.60;;;;;;5007795;28;20376;-67
2021/03/30 08:24:44;;;;;;;14.13;10.60;;;691.60;793.60;;;;;;5005750;28;20050;-67
2021/03/30 08:27:32;;;;;;;15.77;11.98;;;691.30;819.20;;;;;;4995142;28;20035;-66
2021/03/30 08:30:05;;;;;;;15.55;11.88;;;691.50;819.20;;;;;;5007447;28;20034;-68
2021/03/30 08:32:33;;;;;;;18.58;11.90;;;717.20;819.20;;;;;;4999778;28;20034;-68
2021/03/30 08:35:10;;;;;;;16.40;10.88;;;717.40;793.60;;;;;;4997299;28;20022;-67
2021/03/30 08:37:41;;;;;;;16.45;10.35;;;717.40;793.60;;;;;;5000036;28;20432;-67
2021/03/30 08:40:27;;;;;;;;;;;716.80;793.60;;;;;;4995729;28;20402;-67
2021/03/30 08:42:56;;;;;;;14.10;9.40;;;768.90;768.00;;;;;;5000832;28;20070;-67
2021/03/30 08:45:22;;;;;;;15.38;12.02;;;845.70;716.80;;;;;;5001593;28;20040;-67
2021/03/30 08:47:47;;;;;;;56.45;45.67;;;922.50;640.00;;;;;;4999340;28;20022;-65
2021/03/30 08:50:35;;;;;;;16.25;11.00;;;998.60;614.40;;;;;;4994597;28;20037;-68
2021/03/30 08:53:01;;;;;;;8.88;7.10;;;1024.90;563.20;;;;;;5005035;28;20041;-68
2021/03/30 08:55:36;;;;;;;10.85;7.40;;;1024.90;563.20;;;;;;4997262;28;20026;-67
2021/03/30 08:58:02;;;;;;;11.80;7.40;;;1024.50;563.20;;;;;;5001843;28;20018;-67
2021/03/30 09:00:28;;;;;;;13.75;10.07;;;999.00;614.40;;;;;;4994339;28;20026;-67
2021/03/30 09:03:03;;;;;;;13.10;8.30;;;1024.20;588.80;;;;;;4996415;28;20026;-69
2021/03/30 09:05:36;;;;;;;17.95;13.23;;;1024.00;588.80;;;;;;4997313;28;20035;-72
2021/03/30 09:08:01;;;;;;;11.45;8.07;;;1024.90;563.20;;;;;;4996280;28;20157;-69
2021/03/30 09:10:27;;;;;;;13.63;9.05;;;1075.70;537.60;;;;;;5007649;28;20104;-69
2021/03/30 09:13:12;;;;;;;15.15;10.82;;;1050.40;563.20;;;;;;5012686;28;20041;-68
2021/03/30 09:15:38;;;;;;;13.18;8.57;;;1127.00;537.60;;;;;;5013349;28;20017;-69
2021/03/30 09:18:04;;;;;;;10.18;7.72;;;1152.50;512.00;;;;;;5006734;28;20023;-70
2021/03/30 09:20:33;;;;;;;12.80;6.68;;;1101.40;537.60;;;;;;4995210;28;20018;-69
2021/03/30 09:23:12;;;;;;;9.38;7.03;;;1126.50;537.60;;;;;;4999640;28;20022;-73
2021/03/30 09:25:41;;;;;;;9.25;7.20;;;1152.70;512.00;;;;;;4994739;28;20025;-70
2021/03/30 09:28:20;;;;;;;11.68;7.70;;;1126.70;537.60;;;;;;5002874;28;20555;-71
2021/03/30 09:30:46;;;;;;;11.50;7.80;;;1126.60;537.60;;;;;;5011859;28;19917;-73
2021/03/30 09:33:14;;;;;;;9.20;6.88;;;1177.70;486.40;;;;;;4999764;28;20026;-67
2021/03/30 09:35:40;;;;;;;10.57;7.80;;;1126.90;512.00;;;;;;5012914;28;20109;-69
2021/03/30 09:38:05;;;;;;;8.88;6.53;;;1075.70;486.40;;;;;;5008565;28;20108;-68
2021/03/30 09:40:36;;;;;;;8.55;5.70;;;1050.30;512.00;;;;;;4993194;28;20067;-68
2021/03/30 09:43:06;;;;;;;9.07;6.45;;;1024.40;512.00;;;;;;4996746;28;20031;-68
2021/03/30 09:45:35;;;;;;;9.88;6.82;;;1024.40;537.60;;;;;;4993708;28;20019;-68
2021/03/30 09:48:07;;;;;;;6.80;5.00;;;1126.90;512.00;;;;;;4993491;28;20434;-68
2021/03/30 09:50:34;;;;;;;8.55;5.40;;;1178.50;460.80;;;;;;4996924;28;20019;-69
2021/03/30 09:53:05;;;;;;;11.30;7.53;;;1254.50;486.40;;;;;;5002320;28;20022;-68
2021/03/30 09:55:39;;;;;;;10.45;7.05;;;1203.90;486.40;;;;;;5012251;28;20029;-69
2021/03/30 09:58:09;;;;;;;14.93;9.73;;;1178.30;486.40;;;;;;4998664;28;20034;-68
2021/03/30 10:00:37;;;;;;;;;;;1126.60;512.00;;;;;;5006861;28;20036;-69
2021/03/30 10:03:04;;;;;;;11.05;6.95;;;1075.70;512.00;;;;;;5001494;28;20438;-69
2021/03/30 10:05:35;;;;;;;20.88;15.45;;;1075.30;512.00;;;;;;5006347;28;20025;-69
2021/03/30 10:08:01;;;;;;;10.60;7.15;;;1075.80;512.00;;;;;;4994840;28;20033;-67
2021/03/30 10:10:47;;;;;;;10.00;6.20;;;1075.90;512.00;;;;;;5006111;28;20037;-69
2021/03/30 10:13:28;;;;;;;10.95;6.10;;;1024.60;537.60;;;;;;5003157;28;20046;-68
2021/03/30 10:16:07;;;;;;;6.47;3.90;;;973.20;563.20;;;;;;4996082;28;20025;-68
2021/03/30 10:18:35;;;;;;;6.15;4.15;;;922.00;588.80;;;;;;4998561;28;20053;-72
2021/03/30 10:21:00;;;;;;;8.95;4.50;;;896.30;588.80;;;;;;4996392;28;20026;-67
2021/03/30 10:23:28;;;;;;;8.57;5.18;;;870.90;614.40;;;;;;5005765;28;20379;-70
2021/03/30 10:25:54;;;;;;;12.98;5.55;;;845.00;665.60;;;;;;4998262;28;20032;-71
2021/03/30 10:28:31;;;;;;;7.93;4.63;;;819.70;665.60;;;;;;4993049;28;20129;-66
2021/03/30 10:31:08;;;;;;;8.70;5.38;;;820.10;640.00;;;;;;4999657;28;20032;-70
2021/03/30 10:33:40;;;;;;;8.10;5.13;;;845.50;665.60;;;;;;4994094;28;20014;-72
2021/03/30 10:36:13;;;;;;;10.50;6.35;;;820.10;665.60;;;;;;4994562;28;20400;-71
2021/03/30 10:38:40;;;;;;;12.93;6.10;;;819.80;665.60;;;;;;4992682;28;20030;-70
2021/03/30 10:41:10;;;;;;;9.43;6.65;;;794.00;716.80;;;;;;4993230;28;20056;-66
2021/03/30 10:43:37;;;;;;;11.07;6.07;;;768.80;716.80;;;;;;4997372;28;20063;-67
2021/03/30 10:46:18;;;;;;;9.90;5.90;;;794.00;742.40;;;;;;4996586;28;20087;-67
2021/03/30 10:49:03;;;;;;;9.95;6.32;;;743.30;742.40;;;;;;4996222;28;20104;-67
2021/03/30 10:51:34;;;;;;;9.35;5.90;;;742.40;793.60;;;;;;5011605;28;20041;-67
2021/03/30 10:54:01;;;;;;;10.13;6.30;;;717.00;793.60;;;;;;5000462;28;20115;-71
2021/03/30 10:56:33;;;;;;;12.43;6.60;;;716.80;793.60;;;;;;4993818;28;20749;-68
2021/03/30 10:59:06;;;;;;;13.63;9.40;;;691.80;768.00;;;;;;4995140;28;20112;-68
2021/03/30 11:01:31;;;;;;;12.02;8.20;;;691.90;768.00;;;;;;4992927;28;20026;-68
2021/03/30 11:03:57;;;;;;;13.60;7.80;;;691.70;768.00;;;;;;4993366;28;20504;-70
2021/03/30 11:06:23;;;;;;;12.30;8.20;;;691.70;768.00;;;;;;5000270;28;20147;-69
2021/03/30 11:08:48;;;;;;;9.50;5.88;;;691.70;793.60;;;;;;5009559;28;20033;-67
2021/03/30 11:11:14;;;;;;;10.70;7.10;;;691.40;793.60;;;;;;5011345;28;20032;-70
2021/03/30 11:13:40;;;;;;;16.05;7.55;;;666.40;819.20;;;;;;5010474;28;20049;-70
2021/03/30 11:16:06;;;;;;;9.73;5.72;;;666.30;819.20;;;;;;5011186;28;20506;-73
2021/03/30 11:18:32;;;;;;;10.00;6.40;;;666.20;819.20;;;;;;5010956;28;20033;-69
2021/03/30 11:20:57;;;;;;;7.70;5.20;;;666.20;819.20;;;;;;5010215;28;20036;-69
2021/03/30 11:23:23;;;;;;;7.68;5.35;;;665.70;819.20;;;;;;5000653;28;20425;-70
2021/03/30 11:25:49;;;;;;;10.23;5.68;;;665.70;844.80;;;;;;5010792;28;20471;-69
2021/03/30 11:28:15;;;;;;;9.27;5.18;;;665.90;844.80;;;;;;4994380;28;20089;-71
2021/03/30 11:35:52;;;;;;;8.52;4.68;;;640.30;844.80;;;;;;4992710;28;20518;-67
2021/03/30 11:38:19;;;;;;;11.02;5.97;;;640.20;844.80;;;;;;4992639;28;20042;-71
2021/03/30 11:40:45;;;;;;;9.23;5.20;;;615.30;844.80;;;;;;4991486;28;20057;-66
2021/03/30 11:43:12;;;;;;;10.68;5.70;;;615.20;870.40;;;;;;4992723;28;20495;-71
2021/03/30 11:45:37;;;;;;;9.35;4.97;;;614.70;896.00;;;;;;4992038;28;20026;-67
2021/03/30 11:48:04;;;;;;;9.88;4.95;;;589.70;896.00;;;;;;4991810;28;20034;-66
2021/03/30 11:50:31;;;;;;;9.95;6.30;;;589.60;921.60;;;;;;4992038;28;20042;-67
2021/03/30 11:52:57;;;;;;;8.18;5.38;;;614.40;921.60;;;;;;4991613;28;20030;-67
2021/03/30 11:55:24;;;;;;;9.45;6.30;;;614.80;896.00;;;;;;4996796;28;20038;-67
2021/03/30 11:57:50;;;;;;;9.73;5.18;;;615.10;896.00;;;;;;5002736;28;20060;-67
2021/03/30 12:00:16;;;;;;;8.65;5.30;;;615.30;870.40;;;;;;4994117;28;20113;-67
2021/03/30 12:02:44;;;;;;;10.82;5.97;;;615.30;870.40;;;;;;4993825;28;20128;-66
2021/03/30 12:05:11;;;;;;;10.82;5.00;;;640.20;870.40;;;;;;4997332;28;20474;-66
2021/03/30 12:07:36;;;;;;;9.85;4.82;;;640.00;870.40;;;;;;4995808;28;20109;-67
2021/03/30 12:10:04;;;;;;;9.45;5.45;;;615.30;870.40;;;;;;5002520;28;20570;-68
2021/03/30 12:12:30;;;;;;;10.13;5.30;;;640.00;870.40;;;;;;5002402;28;20029;-67
2021/03/30 12:14:57;;;;;;;9.82;6.00;;;640.10;844.80;;;;;;4994721;28;20033;-67
2021/03/30 12:17:22;;;;;;;9.13;5.50;;;640.10;844.80;;;;;;4995602;28;20034;-68
2021/03/30 12:19:48;;;;;;;10.85;5.70;;;640.10;844.80;;;;;;4993147;28;20101;-67
2021/03/30 12:22:14;;;;;;;8.02;5.05;;;640.50;844.80;;;;;;5004450;28;20025;-67
2021/03/30 12:24:39;;;;;;;9.27;5.25;;;640.40;844.80;;;;;;4992727;28;20034;-67
2021/03/30 12:27:09;;;;;;;7.15;4.72;;;640.40;844.80;;;;;;4994663;28;20014;-67
2021/03/30 12:29:39;;;;;;;8.05;4.93;;;640.40;844.80;;;;;;4994692;28;20078;-67